createdAt,value
2023-02-01T00:00:43.766Z,8.53
2023-02-01T00:03:13.741Z,8.60
2023-02-01T00:05:41.404Z,8.57
2023-02-01T00:08:10.731Z,8.40
2023-02-01T00:10:38.360Z,8.17
2023-02-01T00:13:06.240Z,8.17
2023-02-01T00:15:34.802Z,7.93
2023-02-01T00:18:02.630Z,7.73
2023-02-01T00:20:30.251Z,6.87
2023-02-01T00:22:58.013Z,7.50
2023-02-01T00:28:01.709Z,6.60
2023-02-01T00:30:29.376Z,6.00
2023-02-01T00:32:57.197Z,6.53
2023-02-01T00:35:24.921Z,7.10
2023-02-01T00:37:52.909Z,6.30
2023-02-01T00:40:21.043Z,7.07
2023-02-01T00:42:49.008Z,7.00
2023-02-01T00:45:18.330Z,7.10
2023-02-01T00:47:46.145Z,7.33
2023-02-01T00:50:13.946Z,7.80
2023-02-01T00:52:41.685Z,7.17
2023-02-01T00:55:09.861Z,8.17
2023-02-01T00:57:37.744Z,8.37
2023-02-01T01:00:06.423Z,7.80
2023-02-01T01:02:35.519Z,8.97
2023-02-01T01:05:03.626Z,8.67
2023-02-01T01:07:31.396Z,10.40
2023-02-01T01:09:59.186Z,10.50
2023-02-01T01:12:27.049Z,11.50
2023-02-01T01:14:54.748Z,11.60
2023-02-01T01:17:22.452Z,11.30
2023-02-01T01:19:51.612Z,11.73
2023-02-01T01:22:19.806Z,11.63
2023-02-01T01:24:47.544Z,11.03
2023-02-01T01:27:15.274Z,11.07
2023-02-01T01:29:43.072Z,10.90
2023-02-01T01:32:10.749Z,9.60
2023-02-01T01:34:38.771Z,10.70
2023-02-01T01:37:07.853Z,10.03
2023-02-01T01:39:35.595Z,10.27
2023-02-01T01:42:03.382Z,9.73
2023-02-01T01:44:57.935Z,9.13
2023-02-01T01:47:25.729Z,8.10
2023-02-01T01:49:53.441Z,7.77
2023-02-01T01:52:22.492Z,8.33
2023-02-01T01:54:51.113Z,7.43
2023-02-01T01:57:20.023Z,7.40
2023-02-01T01:59:49.093Z,6.60
2023-02-01T02:02:16.951Z,6.27
2023-02-01T02:04:44.747Z,6.17
2023-02-01T02:07:13.733Z,5.80
2023-02-01T02:09:54.612Z,5.30
2023-02-01T02:12:26.385Z,5.43
2023-02-01T02:14:54.263Z,4.60
2023-02-01T02:17:29.076Z,5.23
2023-02-01T02:20:33.394Z,4.83
2023-02-01T02:23:36.946Z,4.03
2023-02-01T02:26:30.517Z,3.97
2023-02-01T02:29:27.537Z,4.40
2023-02-01T02:32:06.645Z,3.93
2023-02-01T02:34:36.413Z,4.80
2023-02-01T02:37:07.690Z,4.60
2023-02-01T02:39:41.182Z,4.03
2023-02-01T02:42:29.862Z,3.73
2023-02-01T02:45:17.585Z,3.73
2023-02-01T02:47:48.569Z,3.90
2023-02-01T02:50:38.331Z,4.00
2023-02-01T02:53:25.341Z,3.73
2023-02-01T02:55:53.138Z,4.00
2023-02-01T02:58:38.772Z,3.30
2023-02-01T03:01:25.218Z,3.37
2023-02-01T03:04:09.870Z,3.43
2023-02-01T03:06:40.354Z,3.33
2023-02-01T03:09:12.315Z,4.47
2023-02-01T03:11:57.588Z,3.13
2023-02-01T03:14:25.283Z,3.10
2023-02-01T03:16:55.846Z,3.67
2023-02-01T03:19:24.257Z,3.13
2023-02-01T03:24:34.329Z,3.27
2023-02-01T03:27:05.221Z,3.40
2023-02-01T03:29:35.653Z,3.13
2023-02-01T03:32:04.463Z,3.30
2023-02-01T03:34:32.136Z,4.57
2023-02-01T03:37:02.393Z,3.47
2023-02-01T03:39:33.233Z,3.73
2023-02-01T03:42:01.927Z,3.93
2023-02-01T03:44:31.591Z,3.77
2023-02-01T03:47:01.115Z,4.17
2023-02-01T03:49:30.427Z,3.03
2023-02-01T03:51:58.350Z,4.27
2023-02-01T03:54:27.516Z,3.80
2023-02-01T03:56:56.545Z,3.37
2023-02-01T03:59:25.041Z,3.70
2023-02-01T04:01:53.836Z,3.93
2023-02-01T04:04:21.767Z,3.60
2023-02-01T04:06:50.518Z,3.80
2023-02-01T04:09:18.438Z,3.40
2023-02-01T04:11:47.565Z,3.50
2023-02-01T04:14:15.258Z,3.80
2023-02-01T04:16:43.078Z,3.97
2023-02-01T04:19:10.827Z,3.70
2023-02-01T04:21:38.776Z,4.10
2023-02-01T04:24:07.693Z,3.33
2023-02-01T04:26:35.426Z,2.70
2023-02-01T04:29:04.643Z,3.53
2023-02-01T04:31:32.383Z,3.97
2023-02-01T04:34:00.306Z,3.80
2023-02-01T04:36:27.973Z,3.90
2023-02-01T04:38:55.704Z,3.67
2023-02-01T04:41:23.782Z,3.93
2023-02-01T04:43:52.143Z,3.53
2023-02-01T04:46:21.277Z,3.60
2023-02-01T04:48:49.161Z,3.77
2023-02-01T04:51:16.949Z,4.00
2023-02-01T04:53:44.754Z,3.37
2023-02-01T04:56:12.598Z,3.93
2023-02-01T04:58:40.381Z,4.07
2023-02-01T05:01:08.798Z,3.60
2023-02-01T05:03:38.058Z,4.00
2023-02-01T05:06:06.071Z,4.37
2023-02-01T05:08:34.106Z,4.00
2023-02-01T05:11:03.435Z,4.27
2023-02-01T05:13:48.447Z,4.03
2023-02-01T05:16:16.189Z,3.63
2023-02-01T05:18:45.299Z,4.10
2023-02-01T05:21:12.971Z,3.97
2023-02-01T05:23:54.687Z,3.53
2023-02-01T05:26:22.462Z,3.63
2023-02-01T05:28:50.197Z,3.50
2023-02-01T05:31:18.161Z,4.10
2023-02-01T05:33:47.358Z,3.97
2023-02-01T05:36:15.133Z,4.07
2023-02-01T05:38:42.912Z,3.87
2023-02-01T05:41:10.620Z,4.80
2023-02-01T05:43:38.779Z,5.20
2023-02-01T05:46:06.682Z,4.13
2023-02-01T05:48:34.482Z,3.70
2023-02-01T05:51:03.936Z,4.30
2023-02-01T05:53:31.737Z,3.87
2023-02-01T05:55:59.532Z,3.87
2023-02-01T05:58:27.414Z,3.20
2023-02-01T06:00:55.112Z,4.03
2023-02-01T06:03:23.152Z,3.93
2023-02-01T06:05:50.875Z,3.80
2023-02-01T06:08:21.078Z,4.30
2023-02-01T06:10:51.653Z,3.60
2023-02-01T06:13:21.238Z,4.40
2023-02-01T06:15:48.893Z,4.33
2023-02-01T06:18:17.168Z,4.17
2023-02-01T06:20:44.991Z,5.10
2023-02-01T06:23:13.819Z,4.87
2023-02-01T06:25:52.664Z,4.33
2023-02-01T06:28:21.180Z,3.50
2023-02-01T06:30:49.254Z,3.60
2023-02-01T06:33:17.503Z,4.00
2023-02-01T06:35:46.529Z,3.60
2023-02-01T06:38:14.691Z,3.90
2023-02-01T06:40:43.278Z,5.23
2023-02-01T06:43:12.762Z,4.03
2023-02-01T06:45:42.853Z,3.33
2023-02-01T06:48:10.823Z,3.43
2023-02-01T06:50:39.873Z,3.43
2023-02-01T06:53:07.916Z,4.90
2023-02-01T06:55:35.918Z,3.87
2023-02-01T06:58:04.298Z,3.33
2023-02-01T07:00:37.431Z,4.37
2023-02-01T07:03:05.481Z,4.53
2023-02-01T07:05:33.415Z,4.57
2023-02-01T07:08:01.346Z,3.50
2023-02-01T07:10:29.429Z,4.50
2023-02-01T07:12:58.833Z,3.93
2023-02-01T07:15:27.984Z,3.73
2023-02-01T07:17:59.287Z,3.87
2023-02-01T07:20:44.575Z,3.83
2023-02-01T07:23:12.727Z,3.57
2023-02-01T07:25:40.843Z,3.77
2023-02-01T07:28:12.496Z,4.67
2023-02-01T07:30:43.907Z,3.70
2023-02-01T07:33:13.333Z,3.90
2023-02-01T07:35:41.236Z,3.80
2023-02-01T07:38:09.191Z,3.40
2023-02-01T07:40:37.055Z,3.27
2023-02-01T07:43:07.004Z,3.70
2023-02-01T07:45:36.923Z,3.87
2023-02-01T07:48:05.323Z,4.47
2023-02-01T07:50:34.356Z,4.23
2023-02-01T07:53:02.479Z,4.63
2023-02-01T07:55:30.203Z,4.67
2023-02-01T07:57:59.787Z,3.57
2023-02-01T08:00:45.467Z,4.57
2023-02-01T08:03:13.337Z,4.73
2023-02-01T08:05:42.450Z,4.13
2023-02-01T08:08:10.123Z,4.60
2023-02-01T08:10:37.848Z,4.33
2023-02-01T08:13:05.549Z,4.90
2023-02-01T08:15:33.191Z,4.00
2023-02-01T08:18:03.194Z,4.10
2023-02-01T08:20:30.915Z,3.60
2023-02-01T08:23:00.098Z,3.73
2023-02-01T08:25:28.543Z,4.23
2023-02-01T08:27:56.447Z,5.17
2023-02-01T08:30:24.461Z,4.67
2023-02-01T08:32:52.488Z,4.37
2023-02-01T08:35:21.177Z,5.00
2023-02-01T08:37:51.603Z,4.90
2023-02-01T08:40:22.760Z,4.50
2023-02-01T08:42:53.488Z,4.87
2023-02-01T08:45:21.597Z,4.20
2023-02-01T08:47:50.433Z,5.53
2023-02-01T08:50:26.794Z,4.67
2023-02-01T08:52:54.895Z,4.40
2023-02-01T08:55:24.094Z,4.77
2023-02-01T08:57:51.802Z,4.60
2023-02-01T09:00:20.282Z,4.70
2023-02-01T09:02:47.957Z,5.23
2023-02-01T09:05:17.392Z,5.17
2023-02-01T09:07:45.068Z,4.30
2023-02-01T09:10:14.554Z,4.77
2023-02-01T09:12:44.731Z,4.87
2023-02-01T09:15:12.588Z,4.93
2023-02-01T09:17:42.727Z,4.00
2023-02-01T09:20:11.938Z,5.13
2023-02-01T09:22:39.668Z,4.67
2023-02-01T09:25:08.656Z,4.87
2023-02-01T09:27:36.431Z,4.87
2023-02-01T09:30:07.716Z,5.30
2023-02-01T09:32:35.498Z,4.87
2023-02-01T09:35:03.175Z,4.80
2023-02-01T09:37:31.038Z,4.33
2023-02-01T09:39:58.760Z,4.67
2023-02-01T09:42:42.727Z,4.70
2023-02-01T09:45:18.166Z,4.37
2023-02-01T09:47:49.211Z,4.37
2023-02-01T09:50:21.651Z,4.97
2023-02-01T09:52:54.213Z,4.57
2023-02-01T09:55:24.110Z,5.87
2023-02-01T09:57:53.232Z,4.27
2023-02-01T10:00:25.372Z,6.10
2023-02-01T10:02:53.407Z,5.40
2023-02-01T10:05:24.457Z,4.17
2023-02-01T10:07:56.885Z,5.20
2023-02-01T10:10:28.712Z,4.50
2023-02-01T10:13:24.901Z,4.60
2023-02-01T10:16:13.973Z,4.37
2023-02-01T10:18:57.485Z,5.63
2023-02-01T10:21:39.884Z,4.43
2023-02-01T10:24:22.659Z,4.73
2023-02-01T10:26:53.119Z,4.83
2023-02-01T10:29:22.184Z,4.83
2023-02-01T10:31:51.330Z,4.57
2023-02-01T10:34:21.634Z,4.03
2023-02-01T10:36:54.761Z,4.50
2023-02-01T10:39:22.473Z,4.77
2023-02-01T10:41:50.207Z,5.40
2023-02-01T10:44:19.316Z,4.93
2023-02-01T10:46:47.015Z,4.50
2023-02-01T10:49:19.005Z,4.40
2023-02-01T10:51:50.660Z,4.60
2023-02-01T10:54:21.211Z,6.17
2023-02-01T10:56:49.311Z,4.83
2023-02-01T10:59:18.090Z,5.13
2023-02-01T11:01:47.571Z,5.47
2023-02-01T11:04:17.622Z,5.00
2023-02-01T11:06:46.143Z,4.50
2023-02-01T11:09:19.031Z,5.20
2023-02-01T11:11:57.901Z,4.47
2023-02-01T11:14:37.826Z,4.63
2023-02-01T11:17:19.980Z,5.50
2023-02-01T11:19:49.110Z,4.40
2023-02-01T11:22:16.835Z,4.80
2023-02-01T11:24:46.944Z,4.77
2023-02-01T11:27:26.544Z,5.40
2023-02-01T11:29:57.200Z,4.63
2023-02-01T11:32:25.197Z,4.97
2023-02-01T11:34:55.779Z,4.53
2023-02-01T11:37:25.484Z,3.90
2023-02-01T11:39:57.310Z,4.07
2023-02-01T11:42:25.319Z,4.83
2023-02-01T11:44:53.179Z,5.03
2023-02-01T11:47:25.236Z,4.47
2023-02-01T11:49:54.885Z,3.93
2023-02-01T11:52:46.033Z,4.53
2023-02-01T11:55:33.236Z,4.40
2023-02-01T11:58:08.640Z,4.03
2023-02-01T12:01:06.021Z,4.10
2023-02-01T12:04:01.256Z,4.20
2023-02-01T12:06:36.667Z,4.00
2023-02-01T12:09:14.454Z,5.07
2023-02-01T12:11:53.501Z,4.40
2023-02-01T12:14:26.967Z,5.63
2023-02-01T12:17:03.852Z,4.97
2023-02-01T12:19:44.552Z,4.00
2023-02-01T12:22:23.945Z,4.07
2023-02-01T12:25:01.190Z,4.67
2023-02-01T12:27:46.270Z,4.27
2023-02-01T12:30:26.554Z,4.07
2023-02-01T12:33:00.097Z,4.30
2023-02-01T12:35:44.433Z,5.07
2023-02-01T12:38:21.702Z,5.53
2023-02-01T12:40:57.200Z,4.77
2023-02-01T12:43:27.356Z,4.37
2023-02-01T12:45:57.988Z,4.87
2023-02-01T12:48:29.965Z,5.43
2023-02-01T12:51:00.187Z,4.50
2023-02-01T12:53:32.810Z,4.80
2023-02-01T12:56:02.333Z,4.93
2023-02-01T12:58:32.383Z,5.07
2023-02-01T13:01:01.547Z,4.50
2023-02-01T13:06:06.154Z,4.10
2023-02-01T13:08:41.041Z,4.10
2023-02-01T13:11:14.705Z,4.90
2023-02-01T13:13:47.032Z,4.37
2023-02-01T13:16:18.837Z,4.13
2023-02-01T13:18:48.736Z,4.63
2023-02-01T13:21:18.237Z,4.20
2023-02-01T13:23:48.172Z,4.57
2023-02-01T13:26:16.101Z,4.40
2023-02-01T13:28:46.516Z,3.67
2023-02-01T13:31:29.494Z,4.03
2023-02-01T13:34:44.279Z,3.73
2023-02-01T13:37:20.706Z,4.00
2023-02-01T13:39:55.477Z,4.33
2023-02-01T13:42:24.552Z,4.00
2023-02-01T13:44:53.213Z,3.80
2023-02-01T13:47:25.237Z,4.47
2023-02-01T13:49:53.004Z,4.30
2023-02-01T13:52:29.682Z,3.87
2023-02-01T13:55:16.338Z,3.77
2023-02-01T13:57:45.566Z,4.10
2023-02-01T14:00:31.454Z,4.10
2023-02-01T14:03:18.895Z,3.83
2023-02-01T14:06:37.109Z,4.37
2023-02-01T14:09:15.289Z,3.80
2023-02-01T14:11:45.766Z,3.87
2023-02-01T14:14:40.455Z,3.70
2023-02-01T14:17:41.225Z,3.60
2023-02-01T14:20:44.591Z,4.27
2023-02-01T14:23:15.095Z,4.20
2023-02-01T14:25:42.769Z,4.03
2023-02-01T14:28:21.733Z,3.77
2023-02-01T14:30:49.771Z,3.30
2023-02-01T14:33:22.449Z,3.30
2023-02-01T14:36:03.481Z,3.33
2023-02-01T14:38:32.344Z,3.30
2023-02-01T14:41:16.745Z,3.13
2023-02-01T14:44:16.380Z,3.23
2023-02-01T14:47:27.005Z,3.77
2023-02-01T14:49:57.575Z,3.20
2023-02-01T14:52:31.824Z,4.40
2023-02-01T14:55:03.438Z,4.30
2023-02-01T14:57:33.180Z,3.37
2023-02-01T15:00:09.745Z,4.20
2023-02-01T15:02:37.481Z,2.90
2023-02-01T15:05:25.108Z,3.50
2023-02-01T15:07:53.070Z,3.20
2023-02-01T15:10:20.822Z,3.10
2023-02-01T15:12:49.425Z,2.53
2023-02-01T15:15:19.846Z,2.40
2023-02-01T15:17:55.017Z,5.50
2023-02-01T15:20:23.954Z,2.53
2023-02-01T15:22:55.785Z,3.10
2023-02-01T15:25:25.002Z,3.53
2023-02-01T15:27:53.285Z,2.67
2023-02-01T15:30:23.818Z,3.23
2023-02-01T15:32:51.716Z,3.40
2023-02-01T15:35:44.354Z,2.80
2023-02-01T15:38:33.140Z,3.20
2023-02-01T15:41:02.190Z,2.83
2023-02-01T15:43:30.695Z,3.33
2023-02-01T15:46:00.300Z,3.07
2023-02-01T15:48:28.840Z,3.23
2023-02-01T15:50:57.158Z,3.53
2023-02-01T15:53:25.839Z,3.17
2023-02-01T15:55:54.199Z,3.20
2023-02-01T15:58:22.845Z,3.77
2023-02-01T16:00:51.962Z,2.63
2023-02-01T16:03:36.789Z,3.40
2023-02-01T16:06:05.829Z,2.40
2023-02-01T16:08:35.641Z,3.17
2023-02-01T16:11:15.189Z,3.43
2023-02-01T16:13:43.143Z,3.00
2023-02-01T16:16:14.862Z,3.40
2023-02-01T16:18:44.099Z,3.70
2023-02-01T16:21:11.856Z,3.10
2023-02-01T16:23:40.057Z,3.17
2023-02-01T16:26:07.898Z,4.60
2023-02-01T16:28:36.136Z,4.03
2023-02-01T16:31:03.972Z,4.23
2023-02-01T16:33:32.002Z,4.40
2023-02-01T16:36:03.207Z,4.57
2023-02-01T16:38:31.579Z,3.77
2023-02-01T16:41:00.388Z,3.87
2023-02-01T16:43:28.452Z,3.50
2023-02-01T16:45:57.281Z,4.40
2023-02-01T16:48:26.494Z,5.20
2023-02-01T16:50:56.092Z,4.87
2023-02-01T16:53:25.829Z,3.57
2023-02-01T16:55:54.931Z,3.87
2023-02-01T16:58:23.105Z,3.57
2023-02-01T17:00:53.295Z,4.13
2023-02-01T17:03:21.949Z,4.30
2023-02-01T17:05:51.411Z,6.10
2023-02-01T17:08:20.552Z,4.17
2023-02-01T17:10:49.732Z,4.27
2023-02-01T17:13:17.796Z,6.43
2023-02-01T17:15:51.156Z,5.13
2023-02-01T17:18:19.132Z,3.97
2023-02-01T17:20:48.499Z,3.93
2023-02-01T17:23:16.596Z,4.47
2023-02-01T17:25:44.355Z,4.00
2023-02-01T17:28:13.440Z,3.70
2023-02-01T17:30:41.281Z,4.27
2023-02-01T17:33:22.193Z,3.77
2023-02-01T17:35:50.610Z,4.60
2023-02-01T17:38:18.841Z,4.13
2023-02-01T17:40:46.507Z,4.03
2023-02-01T17:43:16.894Z,3.87
2023-02-01T17:45:51.571Z,4.80
2023-02-01T17:48:19.763Z,4.27
2023-02-01T17:50:48.010Z,4.27
2023-02-01T17:53:16.824Z,4.57
2023-02-01T17:55:46.135Z,4.73
2023-02-01T17:58:14.699Z,4.70
2023-02-01T18:00:43.891Z,4.37
2023-02-01T18:03:22.750Z,3.83
2023-02-01T18:05:53.382Z,4.47
2023-02-01T18:08:22.810Z,4.13
2023-02-01T18:10:54.406Z,3.67
2023-02-01T18:13:22.321Z,4.57
2023-02-01T18:15:51.409Z,4.33
2023-02-01T18:18:19.063Z,4.50
2023-02-01T18:20:46.768Z,4.90
2023-02-01T18:23:16.855Z,4.70
2023-02-01T18:25:45.697Z,4.00
2023-02-01T18:28:13.347Z,3.57
2023-02-01T18:30:41.149Z,3.77
2023-02-01T18:33:12.130Z,3.77
2023-02-01T18:35:39.852Z,4.50
2023-02-01T18:38:07.736Z,3.53
2023-02-01T18:40:36.785Z,3.80
2023-02-01T18:43:04.671Z,3.63
2023-02-01T18:45:35.140Z,3.10
2023-02-01T18:48:03.082Z,3.43
2023-02-01T18:50:32.746Z,3.60
2023-02-01T18:53:01.490Z,3.43
2023-02-01T18:55:30.427Z,3.50
2023-02-01T18:57:58.088Z,3.60
2023-02-01T19:00:26.886Z,4.57
2023-02-01T19:02:54.591Z,3.70
2023-02-01T19:05:23.360Z,4.23
2023-02-01T19:07:52.846Z,5.50
2023-02-01T19:10:22.281Z,4.10
2023-02-01T19:12:50.625Z,3.90
2023-02-01T19:15:19.649Z,3.43
2023-02-01T19:17:48.574Z,3.23
2023-02-01T19:20:18.142Z,4.67
2023-02-01T19:22:47.318Z,3.60
2023-02-01T19:25:18.523Z,3.60
2023-02-01T19:27:46.291Z,3.60
2023-02-01T19:30:14.363Z,3.47
2023-02-01T19:32:49.809Z,3.67
2023-02-01T19:35:19.515Z,3.40
2023-02-01T19:37:47.465Z,3.57
2023-02-01T19:40:18.138Z,3.83
2023-02-01T19:42:46.508Z,3.40
2023-02-01T19:45:16.068Z,3.47
2023-02-01T19:47:43.747Z,4.40
2023-02-01T19:50:12.598Z,4.23
2023-02-01T19:52:40.368Z,4.33
2023-02-01T19:55:08.600Z,4.30
2023-02-01T19:57:37.630Z,3.50
2023-02-01T20:00:06.475Z,4.50
2023-02-01T20:02:33.337Z,4.17
2023-02-01T20:05:01.049Z,3.97
2023-02-01T20:07:28.770Z,4.53
2023-02-01T20:09:56.546Z,5.43
2023-02-01T20:12:24.197Z,4.80
2023-02-01T20:14:55.443Z,4.60
2023-02-01T20:17:23.284Z,4.03
2023-02-01T20:19:51.016Z,5.13
2023-02-01T20:22:19.172Z,4.27
2023-02-01T20:24:46.887Z,4.40
2023-02-01T20:27:15.389Z,4.73
2023-02-01T20:29:43.170Z,4.33
2023-02-01T20:32:12.223Z,3.90
2023-02-01T20:34:41.119Z,4.13
2023-02-01T20:37:08.929Z,4.40
2023-02-01T20:39:36.609Z,3.87
2023-02-01T20:42:06.356Z,2.17
2023-02-01T20:44:34.082Z,1.77
2023-02-01T20:47:03.048Z,1.77
2023-02-01T20:49:32.293Z,1.40
2023-02-01T20:52:00.014Z,1.60
2023-02-01T20:54:27.834Z,1.77
2023-02-01T20:56:55.481Z,1.60
2023-02-01T20:59:23.315Z,2.07
2023-02-01T21:01:53.848Z,2.20
2023-02-01T21:04:22.220Z,2.20
2023-02-01T21:06:51.477Z,2.53
2023-02-01T21:09:19.241Z,2.90
2023-02-01T21:11:46.940Z,2.80
2023-02-01T21:14:14.792Z,3.27
2023-02-01T21:16:42.542Z,3.63
2023-02-01T21:19:19.221Z,4.10
2023-02-01T21:21:47.198Z,4.60
2023-02-01T21:24:17.001Z,4.40
2023-02-01T21:26:44.761Z,4.10
2023-02-01T21:29:16.494Z,4.70
2023-02-01T21:31:44.201Z,6.60
2023-02-01T21:34:12.153Z,8.10
2023-02-01T21:36:40.025Z,9.40
2023-02-01T21:39:10.732Z,8.37
2023-02-01T21:41:57.363Z,10.43
2023-02-01T21:44:25.142Z,9.27
2023-02-01T21:46:55.617Z,9.37
2023-02-01T21:49:23.746Z,8.00
2023-02-01T21:51:51.611Z,7.67
2023-02-01T21:54:19.339Z,6.17
2023-02-01T21:56:48.678Z,5.70
2023-02-01T21:59:16.396Z,6.37
2023-02-01T22:01:44.383Z,5.83
2023-02-01T22:04:12.098Z,5.63
2023-02-01T22:06:45.793Z,5.03
2023-02-01T22:09:17.071Z,4.40
2023-02-01T22:11:44.838Z,4.40
2023-02-01T22:14:14.213Z,5.10
2023-02-01T22:16:42.219Z,4.50
2023-02-01T22:19:12.313Z,4.23
2023-02-01T22:21:41.932Z,5.23
2023-02-01T22:24:10.671Z,4.97
2023-02-01T22:26:38.404Z,3.77
2023-02-01T22:29:06.415Z,5.07
2023-02-01T22:31:35.904Z,4.63
2023-02-01T22:34:04.021Z,4.40
2023-02-01T22:36:31.818Z,5.03
2023-02-01T22:38:59.480Z,3.97
2023-02-01T22:41:27.475Z,4.53
2023-02-01T22:43:55.133Z,4.67
2023-02-01T22:46:25.646Z,4.17
2023-02-01T22:48:54.851Z,6.53
2023-02-01T22:51:23.327Z,6.87
2023-02-01T22:53:57.357Z,7.03
2023-02-01T22:56:26.018Z,7.37
2023-02-01T22:58:57.417Z,7.80
2023-02-01T23:01:25.179Z,8.60
2023-02-01T23:03:57.111Z,7.63
2023-02-01T23:06:24.983Z,9.10
2023-02-01T23:08:55.931Z,9.70
2023-02-01T23:11:23.776Z,6.83
2023-02-01T23:13:51.464Z,4.60
2023-02-01T23:16:19.244Z,4.83
2023-02-01T23:18:46.992Z,5.93
2023-02-01T23:21:17.003Z,4.40
2023-02-01T23:23:46.998Z,4.50
2023-02-01T23:26:14.881Z,4.70
2023-02-01T23:28:42.769Z,5.03
2023-02-01T23:31:11.238Z,4.60
2023-02-01T23:33:39.346Z,4.13
2023-02-01T23:36:08.520Z,4.60
2023-02-01T23:38:37.686Z,4.77
2023-02-01T23:41:06.113Z,6.00
2023-02-01T23:43:51.299Z,5.40
2023-02-01T23:46:18.979Z,7.20
2023-02-01T23:48:47.808Z,6.47
2023-02-01T23:51:16.020Z,6.07
2023-02-01T23:53:45.426Z,6.37
2023-02-01T23:56:17.914Z,4.93
2023-02-01T23:58:51.850Z,5.77
